createdAt,value
2018-06-19T00:02:37.890Z,4.03
2018-06-19T00:06:42.611Z,4.50
2018-06-19T00:10:47.146Z,3.73
2018-06-19T00:14:52.367Z,3.60
2018-06-19T00:18:59.521Z,3.70
2018-06-19T00:23:04.633Z,3.37
2018-06-19T00:27:09.900Z,3.40
2018-06-19T00:31:15.181Z,3.87
2018-06-19T00:35:20.734Z,3.53
2018-06-19T00:39:29.821Z,3.50
2018-06-19T00:43:34.683Z,3.20
2018-06-19T00:47:39.092Z,4.13
2018-06-19T00:51:43.339Z,4.00
2018-06-19T00:55:47.714Z,2.90
2018-06-19T00:59:51.902Z,2.90
2018-06-19T01:03:56.525Z,4.60
2018-06-19T01:08:00.756Z,3.70
2018-06-19T01:12:05.147Z,3.37
2018-06-19T01:16:09.365Z,4.03
2018-06-19T01:20:13.739Z,3.47
2018-06-19T01:24:17.964Z,3.37
2018-06-19T01:28:21.954Z,3.07
2018-06-19T01:32:26.240Z,2.77
2018-06-19T01:36:30.910Z,3.30
2018-06-19T01:40:35.197Z,3.10
2018-06-19T01:44:39.404Z,3.23
2018-06-19T01:48:43.786Z,3.10
2018-06-19T01:52:48.003Z,3.50
2018-06-19T01:56:52.357Z,4.50
2018-06-19T02:00:56.564Z,3.87
2018-06-19T02:05:00.931Z,3.80
2018-06-19T02:09:06.036Z,3.53
2018-06-19T02:13:10.379Z,4.13
2018-06-19T02:17:14.576Z,3.30
2018-06-19T02:21:18.829Z,3.10
2018-06-19T02:25:23.038Z,2.87
2018-06-19T02:29:27.014Z,2.60
2018-06-19T02:33:30.727Z,3.77
2018-06-19T02:37:35.023Z,3.10
2018-06-19T02:41:39.250Z,3.47
2018-06-19T02:45:43.514Z,3.17
2018-06-19T02:49:47.845Z,2.93
2018-06-19T02:53:52.036Z,3.27
2018-06-19T02:57:56.372Z,3.20
2018-06-19T03:02:00.591Z,2.63
2018-06-19T03:06:04.932Z,3.00
2018-06-19T03:10:09.181Z,2.60
2018-06-19T03:14:13.447Z,2.40
2018-06-19T03:18:17.659Z,2.60
2018-06-19T03:22:22.130Z,2.83
2018-06-19T03:26:26.374Z,2.80
2018-06-19T03:30:30.833Z,2.80
2018-06-19T03:34:35.043Z,2.57
2018-06-19T03:38:39.291Z,2.40
2018-06-19T03:42:43.462Z,3.33
2018-06-19T03:46:47.732Z,2.07
2018-06-19T03:50:51.929Z,3.00
2018-06-19T03:54:56.364Z,3.37
2018-06-19T03:59:00.653Z,2.33
2018-06-19T04:03:05.267Z,2.60
2018-06-19T04:07:09.817Z,2.40
2018-06-19T04:11:14.051Z,2.60
2018-06-19T04:15:18.575Z,2.97
2018-06-19T04:19:22.817Z,3.23
2018-06-19T04:23:27.155Z,3.33
2018-06-19T04:27:31.399Z,2.53
2018-06-19T04:31:35.860Z,3.13
2018-06-19T04:35:40.496Z,2.83
2018-06-19T04:39:44.787Z,3.17
2018-06-19T04:43:49.213Z,2.87
2018-06-19T04:47:53.562Z,2.97
2018-06-19T04:51:57.806Z,2.87
2018-06-19T04:56:02.224Z,3.17
2018-06-19T05:00:06.855Z,3.20
2018-06-19T05:04:11.200Z,3.00
2018-06-19T05:08:15.496Z,3.30
2018-06-19T05:12:20.487Z,2.37
2018-06-19T05:16:25.191Z,2.37
2018-06-19T05:20:29.512Z,2.10
2018-06-19T05:24:33.712Z,2.63
2018-06-19T05:28:38.087Z,2.50
2018-06-19T05:32:42.691Z,2.47
2018-06-19T05:36:47.276Z,2.50
2018-06-19T05:40:51.912Z,2.30
2018-06-19T05:44:56.429Z,1.97
2018-06-19T05:49:00.965Z,2.90
2018-06-19T05:53:05.429Z,2.20
2018-06-19T05:57:09.976Z,3.30
2018-06-19T06:01:14.279Z,2.33
2018-06-19T06:05:18.636Z,2.90
2018-06-19T06:09:31.110Z,1.87
2018-06-19T06:13:35.298Z,2.13
2018-06-19T06:17:39.666Z,2.27
2018-06-19T06:21:43.857Z,1.90
2018-06-19T06:25:48.084Z,1.90
2018-06-19T06:29:52.299Z,2.20
2018-06-19T06:33:57.255Z,2.57
2018-06-19T06:38:01.593Z,2.10
2018-06-19T06:42:05.891Z,2.07
2018-06-19T06:46:10.412Z,2.00
2018-06-19T06:50:14.887Z,2.23
2018-06-19T06:54:19.166Z,1.90
2018-06-19T06:58:23.428Z,1.70
2018-06-19T07:02:27.770Z,1.43
2018-06-19T07:06:32.733Z,2.07
2018-06-19T07:10:36.948Z,2.30
2018-06-19T07:14:41.733Z,1.73
2018-06-19T07:18:45.922Z,2.20
2018-06-19T07:22:50.155Z,1.53
2018-06-19T07:26:54.385Z,1.80
2018-06-19T07:30:58.577Z,1.73
2018-06-19T07:35:02.857Z,1.80
2018-06-19T07:39:08.998Z,1.60
2018-06-19T07:43:13.203Z,1.80
2018-06-19T07:47:17.394Z,2.30
2018-06-19T07:51:21.760Z,2.10
2018-06-19T07:55:26.135Z,2.07
2018-06-19T07:59:30.684Z,1.73
2018-06-19T08:03:35.082Z,2.00
2018-06-19T08:07:39.293Z,1.60
2018-06-19T08:11:43.604Z,1.87
2018-06-19T08:15:47.936Z,1.60
2018-06-19T08:19:52.177Z,1.50
2018-06-19T08:23:56.420Z,1.50
2018-06-19T08:28:00.647Z,1.83
2018-06-19T08:32:05.002Z,2.30
2018-06-19T08:36:09.351Z,2.30
2018-06-19T08:40:13.607Z,1.80
2018-06-19T08:44:17.885Z,2.17
2018-06-19T08:48:22.195Z,2.57
2018-06-19T08:52:26.476Z,1.77
2018-06-19T08:56:30.672Z,2.00
2018-06-19T09:00:34.845Z,1.90
2018-06-19T09:04:39.125Z,1.70
2018-06-19T09:08:43.413Z,1.90
2018-06-19T09:12:47.674Z,2.03
2018-06-19T09:16:51.974Z,1.63
2018-06-19T09:20:56.213Z,1.80
2018-06-19T09:25:00.487Z,1.53
2018-06-19T09:29:04.763Z,1.50
2018-06-19T09:33:09.011Z,1.50
2018-06-19T09:37:13.247Z,2.10
2018-06-19T09:41:18.792Z,1.67
2018-06-19T09:45:23.349Z,2.23
2018-06-19T09:49:28.341Z,1.40
2018-06-19T09:53:33.252Z,2.50
2018-06-19T09:57:38.369Z,1.90
2018-06-19T10:01:42.893Z,1.50
2018-06-19T10:05:47.760Z,1.80
2018-06-19T10:09:53.207Z,1.80
2018-06-19T10:13:58.399Z,1.97
2018-06-19T10:18:03.273Z,1.60
2018-06-19T10:22:07.897Z,1.80
2018-06-19T10:26:11.762Z,1.97
2018-06-19T10:30:16.725Z,1.80
2018-06-19T10:34:21.562Z,1.97
2018-06-19T10:38:26.472Z,1.80
2018-06-19T10:42:31.139Z,1.43
2018-06-19T10:46:35.901Z,1.43
2018-06-19T10:50:40.308Z,2.40
2018-06-19T10:54:46.332Z,1.67
2018-06-19T10:58:51.571Z,2.13
2018-06-19T11:02:55.936Z,2.53
2018-06-19T11:07:00.517Z,1.70
2018-06-19T11:11:05.170Z,1.60
2018-06-19T11:15:09.388Z,2.10
2018-06-19T11:19:14.187Z,1.47
2018-06-19T11:23:18.824Z,1.97
2018-06-19T11:27:23.903Z,1.93
2018-06-19T11:31:28.295Z,1.80
2018-06-19T11:35:33.389Z,2.40
2018-06-19T11:39:38.672Z,1.60
2018-06-19T11:43:43.469Z,2.40
2018-06-19T11:47:48.310Z,1.90
2018-06-19T11:51:53.160Z,1.67
2018-06-19T11:55:58.415Z,1.60
2018-06-19T12:00:03.025Z,2.17
2018-06-19T12:04:08.189Z,1.90
2018-06-19T12:08:13.066Z,2.07
2018-06-19T12:12:18.390Z,2.33
2018-06-19T12:16:22.996Z,2.00
2018-06-19T12:20:28.273Z,1.77
2018-06-19T12:24:34.379Z,1.80
2018-06-19T12:28:39.128Z,1.57
2018-06-19T12:32:43.773Z,1.63
2018-06-19T12:36:49.393Z,2.20
2018-06-19T12:40:54.692Z,1.60
2018-06-19T12:44:59.594Z,1.93
2018-06-19T12:49:05.058Z,1.87
2018-06-19T12:53:20.821Z,1.70
2018-06-19T12:57:25.671Z,1.77
2018-06-19T13:01:30.129Z,1.43
2018-06-19T13:05:45.364Z,2.00
2018-06-19T13:09:50.340Z,1.70
2018-06-19T13:14:05.605Z,1.87
2018-06-19T13:18:20.960Z,2.00
2018-06-19T13:22:26.080Z,1.80
2018-06-19T13:26:31.601Z,1.80
2018-06-19T13:31:47.256Z,2.47
2018-06-19T13:35:52.468Z,2.03
2018-06-19T13:41:41.157Z,2.17
2018-06-19T13:45:46.351Z,1.77
2018-06-19T13:49:51.093Z,1.93
2018-06-19T13:53:55.091Z,2.10
2018-06-19T13:58:32.560Z,2.20
2018-06-19T14:02:37.014Z,1.80
2018-06-19T14:06:41.473Z,1.87
2018-06-19T14:10:57.708Z,1.93
2018-06-19T14:15:02.701Z,2.10
2018-06-19T14:19:07.931Z,1.90
2018-06-19T14:23:13.269Z,1.80
2018-06-19T14:27:17.774Z,1.90
2018-06-19T14:31:22.183Z,1.47
2018-06-19T14:35:26.953Z,1.87
2018-06-19T14:39:32.378Z,2.00
2018-06-19T14:43:36.880Z,1.80
2018-06-19T14:47:42.449Z,1.43
2018-06-19T14:51:46.868Z,1.60
2018-06-19T14:55:51.556Z,1.30
2018-06-19T14:59:56.357Z,1.80
2018-06-19T15:04:02.018Z,1.50
2018-06-19T15:08:07.324Z,1.77
2018-06-19T15:12:12.649Z,1.50
2018-06-19T15:16:19.395Z,2.10
2018-06-19T15:20:24.836Z,1.83
2018-06-19T15:24:30.460Z,1.77
2018-06-19T15:28:35.030Z,1.73
2018-06-19T15:32:40.400Z,1.50
2018-06-19T15:36:45.903Z,1.60
2018-06-19T15:40:50.389Z,1.93
2018-06-19T15:44:55.882Z,1.83
2018-06-19T15:49:00.812Z,1.60
2018-06-19T15:53:05.743Z,1.50
2018-06-19T15:57:11.938Z,2.30
2018-06-19T16:01:16.307Z,1.70
2018-06-19T16:05:20.916Z,1.97
2018-06-19T16:09:25.531Z,2.20
2018-06-19T16:13:30.148Z,2.20
2018-06-19T16:22:28.149Z,2.03
2018-06-19T16:26:33.813Z,1.83
2018-06-19T16:30:39.074Z,2.10
2018-06-19T16:34:44.113Z,2.57
2018-06-19T16:38:49.248Z,2.30
2018-06-19T16:42:54.645Z,2.40
2018-06-19T16:46:59.754Z,2.40
2018-06-19T16:51:04.320Z,2.27
2018-06-19T16:55:08.931Z,2.10
2018-06-19T16:59:14.530Z,1.80
2018-06-19T17:03:19.281Z,2.10
2018-06-19T17:11:33.129Z,1.83
2018-06-19T17:15:37.964Z,2.10
2018-06-19T17:19:42.499Z,2.20
2018-06-19T17:23:47.152Z,1.80
2018-06-19T17:27:51.610Z,1.80
2018-06-19T17:31:56.021Z,1.90
2018-06-19T17:36:00.397Z,2.20
2018-06-19T17:40:05.361Z,2.30
2018-06-19T17:44:10.035Z,2.30
2018-06-19T17:48:14.768Z,2.10
2018-06-19T17:52:19.584Z,2.27
2018-06-19T17:56:24.702Z,2.00
2018-06-19T18:00:29.034Z,2.50
2018-06-19T18:04:33.738Z,2.63
2018-06-19T18:08:38.491Z,1.57
2018-06-19T18:12:44.804Z,2.97
2018-06-19T18:16:50.277Z,2.33
2018-06-19T18:20:54.947Z,2.73
2018-06-19T18:24:59.374Z,2.40
2018-06-19T18:29:05.121Z,2.70
2018-06-19T18:33:10.587Z,2.43
2018-06-19T18:37:16.533Z,3.30
2018-06-19T18:41:22.054Z,2.60
2018-06-19T18:45:27.472Z,2.37
2018-06-19T18:49:32.412Z,2.20
2018-06-19T18:53:38.668Z,4.10
2018-06-19T18:57:44.404Z,2.40
2018-06-19T19:01:49.922Z,2.30
2018-06-19T19:05:55.207Z,2.27
2018-06-19T19:10:04.982Z,2.70
2018-06-19T19:14:09.431Z,3.20
2018-06-19T19:18:19.879Z,2.37
2018-06-19T19:22:24.721Z,2.30
2018-06-19T19:26:34.632Z,2.20
2018-06-19T19:30:40.390Z,2.33
2018-06-19T19:34:45.421Z,3.20
2018-06-19T19:38:55.698Z,3.00
2018-06-19T19:43:00.240Z,3.20
2018-06-19T19:47:09.983Z,3.20
2018-06-19T19:51:15.674Z,2.23
2018-06-19T19:55:21.391Z,2.50
2018-06-19T19:59:26.794Z,2.57
2018-06-19T20:03:31.828Z,2.20
2018-06-19T20:07:37.325Z,2.67
2018-06-19T20:11:41.722Z,3.00
2018-06-19T20:15:46.609Z,2.70
2018-06-19T20:19:52.632Z,2.93
2018-06-19T20:23:57.817Z,3.03
2018-06-19T20:28:02.472Z,3.03
2018-06-19T20:32:07.073Z,2.67
2018-06-19T20:36:11.951Z,2.70
2018-06-19T20:40:17.516Z,3.30
2018-06-19T20:44:23.249Z,2.93
2018-06-19T20:48:28.529Z,2.90
2018-06-19T20:52:33.613Z,4.13
2018-06-19T20:56:38.750Z,2.97
2018-06-19T21:00:43.580Z,2.80
2018-06-19T21:04:48.628Z,3.47
2018-06-19T21:08:53.293Z,3.43
2018-06-19T21:12:59.222Z,4.77
2018-06-19T21:17:03.893Z,3.13
2018-06-19T21:21:09.095Z,3.03
2018-06-19T21:25:13.353Z,3.23
2018-06-19T21:29:18.209Z,3.20
2018-06-19T21:33:22.721Z,3.70
2018-06-19T21:37:27.671Z,4.17
2018-06-19T21:41:32.476Z,3.93
2018-06-19T21:45:37.136Z,3.73
2018-06-19T21:49:42.252Z,3.27
2018-06-19T21:53:46.881Z,3.40
2018-06-19T21:57:51.748Z,3.77
2018-06-19T22:01:57.142Z,3.77
2018-06-19T22:06:01.759Z,3.90
2018-06-19T22:10:06.425Z,2.90
2018-06-19T22:14:10.974Z,3.57
2018-06-19T22:18:16.529Z,4.50
2018-06-19T22:22:21.264Z,2.93
2018-06-19T22:26:26.654Z,3.33
2018-06-19T22:30:31.954Z,3.77
2018-06-19T22:34:36.456Z,4.23
2018-06-19T22:38:41.565Z,4.03
2018-06-19T22:42:46.364Z,4.27
2018-06-19T22:46:51.370Z,4.30
2018-06-19T22:50:56.254Z,4.43
2018-06-19T22:55:00.715Z,3.20
2018-06-19T22:59:05.784Z,5.00
2018-06-19T23:03:10.449Z,4.77
2018-06-19T23:07:14.934Z,4.40
2018-06-19T23:11:20.938Z,5.27
2018-06-19T23:15:26.475Z,4.47
2018-06-19T23:19:31.813Z,4.60
2018-06-19T23:23:38.703Z,4.90
2018-06-19T23:27:43.429Z,4.77
2018-06-19T23:31:47.905Z,4.37
2018-06-19T23:35:52.225Z,4.00
2018-06-19T23:39:57.293Z,4.30
2018-06-19T23:44:02.612Z,3.80
2018-06-19T23:48:07.891Z,4.07
2018-06-19T23:52:13.237Z,3.77
2018-06-19T23:56:18.271Z,4.77
